Time;durP1;ratioP1;P1;durP2;ratioP2;P2;SDS_P1;SDS_P2;PMS_P1;PMS_P2;Temp;Humidity;BMP_temperature;BMP_pressure;BME280_temperature;BME280_humidity;BME280_pressure;Samples;Min_cycle;Max_cycle;Signal;HPM_P1;HPM_P2
2022/04/09 00:02:21;;;;;;;14.82;3.08;;;11.60;72.70;;;;;;4996610;28;20025;-64
2022/04/09 00:04:47;;;;;;;10.80;2.78;;;11.50;72.70;;;;;;4996453;28;20405;-64
2022/04/09 00:07:14;;;;;;;15.20;3.28;;;11.60;73.00;;;;;;4996763;28;20432;-64
2022/04/09 00:09:40;;;;;;;14.30;2.70;;;11.60;73.00;;;;;;4996685;28;20391;-63
2022/04/09 00:12:06;;;;;;;13.82;3.42;;;11.50;72.90;;;;;;4996488;28;20531;-64
2022/04/09 00:14:31;;;;;;;11.07;2.80;;;11.50;72.90;;;;;;4996459;28;20018;-63
2022/04/09 00:16:57;;;;;;;14.07;2.85;;;11.40;72.70;;;;;;4994164;28;20481;-64
2022/04/09 00:19:23;;;;;;;15.20;3.35;;;11.40;73.00;;;;;;4991806;28;20153;-58
2022/04/09 00:21:48;;;;;;;12.93;3.40;;;11.40;72.80;;;;;;4979440;28;20050;-64
2022/04/09 00:24:14;;;;;;;11.35;3.03;;;11.40;73.00;;;;;;4976799;28;20034;-53
2022/04/09 00:26:40;;;;;;;12.55;3.72;;;11.40;73.30;;;;;;4976625;28;20527;-64
2022/04/09 00:29:06;;;;;;;13.02;3.70;;;11.30;73.20;;;;;;4976634;28;20031;-64
2022/04/09 00:31:32;;;;;;;12.90;4.25;;;11.30;73.40;;;;;;4977009;28;20056;-63
2022/04/09 00:33:58;;;;;;;15.35;4.60;;;11.30;73.40;;;;;;4976333;28;20162;-64
2022/04/09 00:36:24;;;;;;;12.40;3.35;;;11.30;73.50;;;;;;4976179;28;20508;-52
2022/04/09 00:38:49;;;;;;;11.63;3.40;;;11.30;73.70;;;;;;4976252;28;20043;-60
2022/04/09 00:41:15;;;;;;;15.80;3.33;;;11.20;73.60;;;;;;4976622;28;20022;-64
2022/04/09 00:43:42;;;;;;;12.98;3.03;;;11.30;73.30;;;;;;4976431;28;20030;-56
2022/04/09 00:46:08;;;;;;;15.18;3.38;;;11.20;73.50;;;;;;4976356;28;20039;-59
2022/04/09 00:48:37;;;;;;;15.57;3.45;;;11.20;73.50;;;;;;4976061;28;20491;-54
2022/04/09 00:51:03;;;;;;;16.48;3.53;;;11.20;73.80;;;;;;4976341;28;20042;-58
2022/04/09 00:53:33;;;;;;;15.07;2.92;;;11.20;73.80;;;;;;4976165;28;20069;-54
2022/04/09 00:56:13;;;;;;;14.07;3.28;;;11.20;74.10;;;;;;4976498;28;20018;-64
2022/04/09 00:58:59;;;;;;;10.63;2.53;;;11.10;73.80;;;;;;4976002;28;20039;-60
2022/04/09 01:01:27;;;;;;;9.60;2.70;;;11.10;74.80;;;;;;4975881;28;20014;-55
2022/04/09 01:03:53;;;;;;;15.48;3.42;;;11.10;73.90;;;;;;4975601;28;20027;-55
2022/04/09 01:06:19;;;;;;;20.63;3.58;;;11.10;74.30;;;;;;4976183;28;20182;-54
2022/04/09 01:08:45;;;;;;;16.35;3.80;;;11.10;74.30;;;;;;4980446;28;20110;-54
2022/04/09 01:11:12;;;;;;;17.27;3.63;;;11.10;74.20;;;;;;4988318;28;20026;-62
2022/04/09 01:13:38;;;;;;;14.00;2.92;;;11.00;74.30;;;;;;4975872;28;20388;-64
2022/04/09 01:16:04;;;;;;;14.27;3.72;;;11.00;74.20;;;;;;4975517;28;20468;-50
2022/04/09 01:18:31;;;;;;;10.13;3.22;;;11.00;74.40;;;;;;4975502;28;20043;-56
2022/04/09 01:21:01;;;;;;;18.50;3.10;;;11.00;74.70;;;;;;4975792;28;20109;-53
2022/04/09 01:23:27;;;;;;;13.77;3.90;;;11.00;74.60;;;;;;4975236;28;20105;-58
2022/04/09 01:25:55;;;;;;;16.02;3.72;;;11.10;75.00;;;;;;4975848;28;20015;-61
2022/04/09 01:28:21;;;;;;;12.60;3.30;;;11.00;75.10;;;;;;4975865;28;20089;-63
2022/04/09 01:30:47;;;;;;;19.50;4.10;;;11.00;75.10;;;;;;4975329;28;20031;-53
2022/04/09 01:33:19;;;;;;;16.63;4.32;;;11.00;75.00;;;;;;4975742;28;20019;-64
2022/04/09 01:35:45;;;;;;;22.80;4.32;;;11.00;74.80;;;;;;4975681;28;20046;-63
2022/04/09 01:38:11;;;;;;;14.55;3.45;;;11.00;74.60;;;;;;4975472;28;20035;-58
2022/04/09 01:40:37;;;;;;;17.00;3.15;;;11.00;74.70;;;;;;4975401;28;20029;-62
2022/04/09 01:43:03;;;;;;;14.85;3.08;;;11.00;74.70;;;;;;4975583;28;20473;-64
2022/04/09 01:45:29;;;;;;;17.83;3.05;;;11.00;75.00;;;;;;4975013;28;20030;-58
2022/04/09 01:47:55;;;;;;;16.48;3.90;;;11.00;74.80;;;;;;4974667;28;20062;-56
2022/04/09 01:50:26;;;;;;;13.30;3.67;;;11.00;74.40;;;;;;4975475;28;20448;-56
2022/04/09 01:52:54;;;;;;;12.05;3.00;;;11.00;74.20;;;;;;4975499;28;20106;-60
2022/04/09 01:55:21;;;;;;;20.08;3.60;;;11.00;74.40;;;;;;4957773;28;20026;-63
2022/04/09 01:57:48;;;;;;;13.93;2.85;;;10.90;74.30;;;;;;4975009;28;20114;-62
2022/04/09 02:00:15;;;;;;;19.00;3.75;;;10.90;74.40;;;;;;4974898;28;20023;-60
2022/04/09 02:02:41;;;;;;;19.55;3.67;;;10.90;74.80;;;;;;4975259;28;20105;-63
2022/04/09 02:05:07;;;;;;;13.57;2.88;;;10.90;74.60;;;;;;4975320;28;20022;-64
2022/04/09 02:07:35;;;;;;;17.52;3.50;;;10.80;74.80;;;;;;4974888;28;20023;-58
2022/04/09 02:10:00;;;;;;;19.27;4.20;;;10.80;74.70;;;;;;4974979;28;20019;-57
2022/04/09 02:12:26;;;;;;;15.90;3.40;;;10.80;74.70;;;;;;4975063;28;20031;-63
2022/04/09 02:14:51;;;;;;;16.48;3.42;;;10.80;74.50;;;;;;4974306;28;20030;-49
2022/04/09 02:17:17;;;;;;;14.88;3.63;;;10.80;74.50;;;;;;4975159;28;20042;-62
2022/04/09 02:19:42;;;;;;;19.30;3.40;;;10.80;74.40;;;;;;4974740;28;20077;-62
2022/04/09 02:22:08;;;;;;;19.15;3.65;;;10.80;74.50;;;;;;4975107;28;20058;-59
2022/04/09 02:24:33;;;;;;;17.38;4.38;;;10.70;74.50;;;;;;4974882;28;20026;-53
2022/04/09 02:26:59;;;;;;;19.77;4.18;;;10.70;74.50;;;;;;4974597;28;20358;-53
2022/04/09 02:29:25;;;;;;;15.60;3.92;;;10.70;74.40;;;;;;4974463;28;20462;-63
2022/04/09 02:31:50;;;;;;;18.45;3.72;;;10.70;74.60;;;;;;4974755;28;20022;-59
2022/04/09 02:34:16;;;;;;;16.38;3.67;;;10.60;74.70;;;;;;4974695;28;20377;-53
2022/04/09 02:36:42;;;;;;;17.27;3.85;;;10.60;74.80;;;;;;4974413;28;20031;-62
2022/04/09 02:39:07;;;;;;;11.25;3.05;;;10.60;74.70;;;;;;4974457;28;20035;-63
2022/04/09 02:41:33;;;;;;;15.27;4.47;;;10.60;74.70;;;;;;4974460;28;20184;-63
2022/04/09 02:43:59;;;;;;;14.75;3.17;;;10.60;74.80;;;;;;4974313;28;20685;-63
2022/04/09 02:46:25;;;;;;;17.17;4.22;;;10.50;74.50;;;;;;4974198;28;20157;-60
2022/04/09 02:48:51;;;;;;;14.10;4.30;;;10.50;74.60;;;;;;4974432;28;20022;-64
2022/04/09 02:51:17;;;;;;;12.73;3.75;;;10.50;74.90;;;;;;4974470;28;20045;-62
2022/04/09 02:53:44;;;;;;;19.00;4.28;;;10.50;74.80;;;;;;4974357;28;20044;-64
2022/04/09 02:56:10;;;;;;;16.67;3.47;;;10.40;75.10;;;;;;4974154;28;20019;-54
2022/04/09 02:58:35;;;;;;;16.30;3.97;;;10.40;75.10;;;;;;4974022;28;20089;-63
2022/04/09 03:01:01;;;;;;;17.25;4.80;;;10.40;75.30;;;;;;4974129;28;20023;-63
2022/04/09 03:03:26;;;;;;;15.65;3.75;;;10.40;75.90;;;;;;4974254;28;20361;-51
2022/04/09 03:05:52;;;;;;;17.17;4.30;;;10.40;75.40;;;;;;4974203;28;20027;-54
2022/04/09 03:08:17;;;;;;;14.25;3.85;;;10.30;76.00;;;;;;4974255;28;20109;-53
2022/04/09 03:10:43;;;;;;;13.40;3.60;;;10.30;75.40;;;;;;4974134;28;20469;-63
2022/04/09 03:13:08;;;;;;;14.82;4.40;;;10.30;75.50;;;;;;4973813;28;20035;-56
2022/04/09 03:15:34;;;;;;;16.55;3.85;;;10.30;75.50;;;;;;4974311;28;20030;-52
2022/04/09 03:18:00;;;;;;;20.30;4.63;;;10.30;75.40;;;;;;4974207;28;20070;-57
2022/04/09 03:20:25;;;;;;;16.73;4.03;;;10.20;75.20;;;;;;4973972;28;20039;-52
2022/04/09 03:22:51;;;;;;;18.25;4.82;;;10.20;75.40;;;;;;4973968;28;20027;-54
2022/04/09 03:25:17;;;;;;;14.02;3.65;;;10.20;75.40;;;;;;4974103;28;20408;-63
2022/04/09 03:27:43;;;;;;;13.32;3.70;;;10.20;75.60;;;;;;4973549;28;20066;-50
2022/04/09 03:30:09;;;;;;;18.85;4.30;;;10.10;75.30;;;;;;4974018;28;20061;-56
2022/04/09 03:32:36;;;;;;;15.77;4.47;;;10.10;75.50;;;;;;4973972;28;20023;-60
2022/04/09 03:35:06;;;;;;;17.90;4.25;;;10.10;75.50;;;;;;4974197;28;20030;-63
2022/04/09 03:37:35;;;;;;;15.82;4.57;;;10.10;75.50;;;;;;4973685;28;20114;-58
2022/04/09 03:40:05;;;;;;;15.05;3.95;;;10.10;75.50;;;;;;4974038;28;20027;-62
2022/04/09 03:42:32;;;;;;;17.75;4.45;;;10.10;75.50;;;;;;4973723;28;20054;-63
2022/04/09 03:44:57;;;;;;;13.35;3.65;;;10.10;75.60;;;;;;4973890;28;20027;-62
2022/04/09 03:47:23;;;;;;;16.38;3.50;;;10.00;75.50;;;;;;4973745;28;20039;-63
2022/04/09 03:49:49;;;;;;;14.90;3.25;;;10.10;75.60;;;;;;4973776;28;20031;-58
2022/04/09 03:52:14;;;;;;;14.73;4.03;;;10.00;75.40;;;;;;4973714;28;20027;-53
2022/04/09 03:54:40;;;;;;;12.80;4.15;;;10.00;75.50;;;;;;4973727;28;20102;-62
2022/04/09 03:57:06;;;;;;;14.43;3.58;;;10.00;75.60;;;;;;4973392;28;20038;-62
2022/04/09 03:59:31;;;;;;;16.92;4.40;;;10.00;75.60;;;;;;4974045;28;20500;-63
2022/04/09 04:01:57;;;;;;;14.80;3.58;;;10.00;75.40;;;;;;4973892;28;20491;-62
2022/04/09 04:04:23;;;;;;;12.65;3.17;;;10.00;75.20;;;;;;4973862;28;20432;-51
2022/04/09 04:06:48;;;;;;;13.25;3.58;;;10.00;75.40;;;;;;4973535;28;20023;-62
2022/04/09 04:09:16;;;;;;;13.65;3.30;;;9.90;75.40;;;;;;4973587;28;20027;-51
2022/04/09 04:11:44;;;;;;;16.65;4.15;;;9.90;75.60;;;;;;4975089;28;20428;-63
2022/04/09 04:14:10;;;;;;;12.25;2.97;;;9.90;75.40;;;;;;4977354;28;20026;-63
2022/04/09 04:16:35;;;;;;;12.05;3.50;;;9.90;75.50;;;;;;4977077;28;20023;-51
2022/04/09 04:19:01;;;;;;;16.38;3.75;;;9.80;75.60;;;;;;4976705;28;20042;-62
2022/04/09 04:21:27;;;;;;;16.30;3.45;;;9.80;75.70;;;;;;4977259;28;20053;-54
2022/04/09 04:23:53;;;;;;;18.30;4.88;;;9.90;76.40;;;;;;4976552;28;20150;-59
2022/04/09 04:26:19;;;;;;;18.63;4.40;;;9.80;75.80;;;;;;4977037;28;20089;-52
2022/04/09 04:28:48;;;;;;;12.13;4.00;;;9.80;75.90;;;;;;4976730;28;20498;-62
2022/04/09 04:31:18;;;;;;;17.98;3.90;;;9.80;76.00;;;;;;4976824;28;20074;-59
2022/04/09 04:33:43;;;;;;;15.85;3.42;;;9.80;76.20;;;;;;4976817;28;20030;-54
2022/04/09 04:36:09;;;;;;;14.20;4.15;;;9.80;76.20;;;;;;4976804;28;20026;-59
2022/04/09 04:38:35;;;;;;;16.38;4.30;;;9.70;76.20;;;;;;4976266;28;20485;-51
2022/04/09 04:41:02;;;;;;;18.10;4.68;;;9.70;76.40;;;;;;4976603;28;20027;-64
2022/04/09 04:43:27;;;;;;;13.95;3.97;;;9.70;76.50;;;;;;4976593;28;20033;-63
2022/04/09 04:45:53;;;;;;;14.27;4.38;;;9.70;76.40;;;;;;4976479;28;20101;-53
2022/04/09 04:48:20;;;;;;;18.13;4.47;;;9.70;76.50;;;;;;4977013;28;20093;-62
2022/04/09 04:50:46;;;;;;;19.45;4.43;;;9.70;76.50;;;;;;4976475;28;20090;-51
2022/04/09 04:53:12;;;;;;;15.30;4.65;;;9.70;76.60;;;;;;4975970;28;20022;-60
2022/04/09 04:55:38;;;;;;;15.27;3.38;;;9.70;76.60;;;;;;4976511;28;20157;-56
2022/04/09 04:58:03;;;;;;;16.02;4.28;;;9.60;76.60;;;;;;4976272;28;20085;-50
2022/04/09 05:00:29;;;;;;;15.75;4.32;;;9.60;76.60;;;;;;4977013;28;20026;-60
2022/04/09 05:02:55;;;;;;;14.43;4.43;;;9.60;76.80;;;;;;4987728;28;20030;-59
2022/04/09 05:05:21;;;;;;;13.80;4.15;;;9.60;76.80;;;;;;4975798;28;20033;-63
2022/04/09 05:07:49;;;;;;;19.52;4.07;;;9.60;76.90;;;;;;4973807;28;20062;-59
2022/04/09 05:10:17;;;;;;;17.75;4.45;;;9.60;76.90;;;;;;4976391;28;20085;-60
2022/04/09 05:12:43;;;;;;;13.70;4.03;;;9.60;77.00;;;;;;4976264;28;20053;-64
2022/04/09 05:15:11;;;;;;;13.55;4.18;;;9.60;77.30;;;;;;4975716;28;20101;-58
2022/04/09 05:17:37;;;;;;;17.02;4.53;;;9.50;77.40;;;;;;4975911;28;20026;-56
2022/04/09 05:20:05;;;;;;;18.92;4.22;;;9.50;77.50;;;;;;4975905;28;20137;-60
2022/04/09 05:22:31;;;;;;;18.02;4.65;;;9.50;77.40;;;;;;4975232;28;20027;-58
2022/04/09 05:24:57;;;;;;;18.05;4.95;;;9.50;77.40;;;;;;4975259;28;20468;-61
2022/04/09 05:27:23;;;;;;;14.85;3.75;;;9.50;77.40;;;;;;4975839;28;20027;-62
2022/04/09 05:29:48;;;;;;;14.23;3.65;;;9.50;77.60;;;;;;4975668;28;20101;-62
2022/04/09 05:32:14;;;;;;;13.60;3.92;;;9.50;77.70;;;;;;4975827;28;20027;-53
2022/04/09 05:34:40;;;;;;;17.90;4.97;;;9.50;77.50;;;;;;4975535;28;20532;-62
2022/04/09 05:37:06;;;;;;;17.73;4.88;;;9.50;77.60;;;;;;4974994;28;20023;-63
2022/04/09 05:39:32;;;;;;;17.17;5.38;;;9.50;77.60;;;;;;4975711;28;20035;-63
2022/04/09 05:41:57;;;;;;;16.15;5.18;;;9.50;77.60;;;;;;4975830;28;20039;-59
2022/04/09 05:44:23;;;;;;;20.67;5.10;;;9.40;77.80;;;;;;4975426;28;20113;-63
2022/04/09 05:46:48;;;;;;;15.55;4.72;;;9.40;77.90;;;;;;4974344;28;20089;-52
2022/04/09 05:49:14;;;;;;;18.00;5.60;;;9.40;77.80;;;;;;4972947;28;20030;-62
2022/04/09 05:51:40;;;;;;;13.25;5.05;;;9.40;77.90;;;;;;4973839;28;20035;-57
2022/04/09 05:54:05;;;;;;;14.63;4.70;;;9.40;77.90;;;;;;4975317;28;20023;-62
2022/04/09 05:56:31;;;;;;;16.90;4.03;;;9.40;78.10;;;;;;4974925;28;20042;-57
2022/04/09 05:58:57;;;;;;;13.23;4.50;;;9.40;78.10;;;;;;4975130;28;20370;-58
2022/04/09 06:01:22;;;;;;;19.77;4.80;;;9.40;78.10;;;;;;4975221;28;20076;-50
2022/04/09 06:03:48;;;;;;;19.23;4.95;;;9.40;78.10;;;;;;4975125;28;20121;-52
2022/04/09 06:06:14;;;;;;;16.80;4.55;;;9.40;78.40;;;;;;4974682;28;20038;-61
2022/04/09 06:08:39;;;;;;;14.93;4.35;;;9.40;79.40;;;;;;4975248;28;20038;-62
2022/04/09 06:11:05;;;;;;;17.92;4.53;;;9.30;80.50;;;;;;4974873;28;20132;-61
2022/04/09 06:13:31;;;;;;;50.05;6.45;;;9.40;81.30;;;;;;4976678;28;20121;-52
2022/04/09 06:15:57;;;;;;;25.40;6.40;;;9.50;83.00;;;;;;4978819;28;20111;-60
2022/04/09 06:18:22;;;;;;;15.23;3.85;;;9.60;82.20;;;;;;4988476;28;20130;-57
2022/04/09 06:20:48;;;;;;;13.30;3.33;;;9.70;81.90;;;;;;4993678;28;20035;-61
2022/04/09 06:23:14;;;;;;;10.38;3.53;;;9.80;81.70;;;;;;4994035;28;20065;-57
2022/04/09 06:25:39;;;;;;;18.20;3.63;;;9.90;81.60;;;;;;4990192;28;20034;-54
2022/04/09 06:28:05;;;;;;;13.18;4.13;;;9.90;81.40;;;;;;4992794;28;20488;-55
2022/04/09 06:30:30;;;;;;;18.63;4.60;;;10.00;81.30;;;;;;4993257;28;20084;-63
2022/04/09 06:32:56;;;;;;;18.73;4.40;;;10.10;81.00;;;;;;4993853;28;20069;-61
2022/04/09 06:35:23;;;;;;;15.98;4.28;;;10.10;80.50;;;;;;4993148;28;20061;-57
2022/04/09 06:37:48;;;;;;;12.57;4.13;;;10.20;80.10;;;;;;4993375;28;20046;-61
2022/04/09 06:40:14;;;;;;;13.68;4.57;;;10.30;80.80;;;;;;4993438;28;20026;-59
2022/04/09 06:42:40;;;;;;;19.50;4.43;;;10.30;80.70;;;;;;4991582;28;20080;-61
2022/04/09 06:45:08;;;;;;;15.70;4.50;;;10.40;80.60;;;;;;4991627;28;20369;-58
2022/04/09 06:47:39;;;;;;;16.08;4.75;;;10.50;80.70;;;;;;4993230;28;20124;-59
2022/04/09 06:50:09;;;;;;;17.00;5.40;;;10.50;79.20;;;;;;4993075;28;20026;-56
2022/04/09 06:52:36;;;;;;;17.77;5.03;;;10.70;78.40;;;;;;4993290;28;20034;-62
2022/04/09 06:55:02;;;;;;;20.83;4.40;;;10.70;78.00;;;;;;4991934;28;20097;-61
2022/04/09 06:57:28;;;;;;;14.13;4.72;;;10.70;77.80;;;;;;4992689;28;20030;-57
2022/04/09 06:59:58;;;;;;;20.13;5.30;;;10.70;77.80;;;;;;4989418;28;20092;-59
2022/04/09 07:02:24;;;;;;;16.27;4.72;;;10.90;77.60;;;;;;4993293;28;20034;-62
2022/04/09 07:04:50;;;;;;;14.48;5.28;;;10.90;77.80;;;;;;4992500;28;20031;-62
2022/04/09 07:07:22;;;;;;;17.90;6.13;;;10.90;77.60;;;;;;4993172;28;20023;-63
2022/04/09 07:09:48;;;;;;;;;;;11.00;77.20;;;;;;4988931;28;20026;-62
2022/04/09 07:12:13;;;;;;;22.55;5.80;;;11.00;77.10;;;;;;4980891;28;20000;-63
2022/04/09 07:14:39;;;;;;;17.90;5.85;;;11.10;77.50;;;;;;4985035;28;20023;-62
2022/04/09 07:17:05;;;;;;;17.17;5.57;;;11.20;77.80;;;;;;4988689;28;20042;-63
2022/04/09 07:19:30;;;;;;;20.55;6.50;;;11.20;77.60;;;;;;4987503;28;20047;-64
2022/04/09 07:21:56;;;;;;;17.60;5.57;;;11.30;77.70;;;;;;4991433;28;20416;-62
2022/04/09 07:24:21;;;;;;;14.75;5.85;;;11.40;78.00;;;;;;4985821;28;20097;-62
2022/04/09 07:26:47;;;;;;;15.50;5.05;;;11.50;78.00;;;;;;4989421;28;20022;-62
2022/04/09 07:29:13;;;;;;;17.02;5.13;;;11.60;78.00;;;;;;4985864;28;20030;-60
2022/04/09 07:31:38;;;;;;;17.02;4.82;;;11.60;77.70;;;;;;4991676;28;20088;-62
2022/04/09 07:34:04;;;;;;;13.93;3.55;;;11.70;77.90;;;;;;4991798;28;20542;-61
2022/04/09 07:36:29;;;;;;;12.98;4.32;;;11.80;78.00;;;;;;4992054;28;20132;-61
2022/04/09 07:38:55;;;;;;;9.13;3.10;;;11.80;77.70;;;;;;4989960;28;20437;-62
2022/04/09 07:41:21;;;;;;;12.90;3.03;;;11.90;79.60;;;;;;4988059;28;20057;-62
2022/04/09 07:43:47;;;;;;;10.23;3.08;;;12.00;77.90;;;;;;4984256;28;20118;-63
2022/04/09 07:46:12;;;;;;;9.90;3.20;;;12.00;77.00;;;;;;4987346;28;20041;-63
2022/04/09 07:48:38;;;;;;;15.57;3.00;;;12.10;78.00;;;;;;4991390;28;20031;-62
2022/04/09 07:51:03;;;;;;;9.55;2.83;;;12.20;78.50;;;;;;4984310;28;20030;-60
2022/04/09 07:53:29;;;;;;;7.70;2.28;;;12.30;77.60;;;;;;4989757;28;20027;-62
2022/04/09 07:55:54;;;;;;;8.95;3.00;;;12.30;76.10;;;;;;4977720;28;20487;-63
2022/04/09 07:58:20;;;;;;;8.43;2.33;;;12.40;76.40;;;;;;4996776;28;20042;-62
2022/04/09 08:00:46;;;;;;;10.80;2.72;;;12.40;75.30;;;;;;4988114;28;20027;-62
2022/04/09 08:03:12;;;;;;;10.13;2.70;;;12.50;76.00;;;;;;4987415;28;20093;-64
2022/04/09 08:05:37;;;;;;;8.38;2.90;;;12.60;75.30;;;;;;4993701;28;20030;-62
2022/04/09 08:08:04;;;;;;;8.57;2.65;;;12.60;74.30;;;;;;4995934;28;20022;-62
2022/04/09 08:10:30;;;;;;;9.02;3.33;;;12.70;74.80;;;;;;4990895;28;20488;-61
2022/04/09 08:12:56;;;;;;;7.72;2.25;;;12.70;74.20;;;;;;4993463;28;20030;-62
2022/04/09 08:15:23;;;;;;;5.13;1.80;;;12.80;74.30;;;;;;4993163;28;20033;-63
2022/04/09 08:17:49;;;;;;;10.90;2.50;;;12.90;73.50;;;;;;4990855;28;20089;-55
2022/04/09 08:20:18;;;;;;;10.15;2.58;;;12.90;73.10;;;;;;4985366;28;20038;-58
2022/04/09 08:22:44;;;;;;;10.32;2.53;;;13.00;72.70;;;;;;4988987;28;20118;-64
2022/04/09 08:25:10;;;;;;;10.57;2.42;;;13.00;72.30;;;;;;4996160;28;20105;-63
2022/04/09 08:27:36;;;;;;;9.35;2.35;;;13.00;72.70;;;;;;4989870;28;20026;-63
2022/04/09 08:30:03;;;;;;;5.82;2.35;;;13.10;73.10;;;;;;4985064;28;20027;-61
2022/04/09 08:32:29;;;;;;;8.43;2.25;;;13.10;73.00;;;;;;4983179;28;20026;-50
2022/04/09 08:34:55;;;;;;;5.88;2.20;;;13.20;72.00;;;;;;4987745;28;20029;-55
2022/04/09 08:37:22;;;;;;;6.30;2.33;;;13.20;72.80;;;;;;4984991;28;20495;-60
2022/04/09 08:39:49;;;;;;;7.65;2.35;;;13.30;72.60;;;;;;4986938;28;20121;-57
2022/04/09 08:42:15;;;;;;;8.25;2.13;;;13.40;72.40;;;;;;4984812;28;20053;-64
2022/04/09 08:44:41;;;;;;;7.07;2.88;;;13.40;71.50;;;;;;4993039;28;20066;-62
2022/04/09 08:47:07;;;;;;;9.50;2.38;;;13.50;70.60;;;;;;4983963;28;20069;-61
2022/04/09 08:49:38;;;;;;;8.85;2.03;;;13.50;69.70;;;;;;4989182;28;20039;-63
2022/04/09 08:52:07;;;;;;;8.55;2.88;;;13.50;69.50;;;;;;4992418;28;20110;-62
2022/04/09 08:54:36;;;;;;;10.18;2.92;;;13.50;70.40;;;;;;4991978;28;20037;-62
2022/04/09 08:57:02;;;;;;;9.55;2.30;;;13.60;73.30;;;;;;4981681;28;20485;-63
2022/04/09 08:59:27;;;;;;;8.13;2.65;;;13.70;73.00;;;;;;4985002;28;20037;-63
2022/04/09 09:01:53;;;;;;;5.60;2.28;;;13.70;71.60;;;;;;4997224;28;20041;-53
2022/04/09 09:04:19;;;;;;;6.82;1.80;;;13.70;71.40;;;;;;4995111;28;20026;-62
2022/04/09 09:06:45;;;;;;;7.57;2.45;;;13.80;71.40;;;;;;4992922;28;20026;-59
2022/04/09 09:09:32;;;;;;;8.18;1.92;;;13.80;74.20;;;;;;4986677;28;20498;-64
2022/04/09 09:12:02;;;;;;;5.78;2.30;;;13.90;70.50;;;;;;4997886;28;20030;-62
2022/04/09 09:14:30;;;;;;;8.45;2.72;;;13.90;69.10;;;;;;4994699;28;20104;-64
2022/04/09 09:17:00;;;;;;;6.55;2.00;;;14.00;67.90;;;;;;4982348;28;20469;-53
2022/04/09 09:19:45;;;;;;;5.60;1.80;;;14.00;66.70;;;;;;4985395;28;20073;-58
2022/04/09 09:22:11;;;;;;;5.15;1.70;;;14.00;67.20;;;;;;4984519;28;20380;-65
2022/04/09 09:24:37;;;;;;;5.05;1.15;;;14.00;66.10;;;;;;4965972;28;20468;-61
2022/04/09 09:27:04;;;;;;;6.53;1.50;;;14.00;64.40;;;;;;4986704;28;20025;-56
2022/04/09 09:29:31;;;;;;;7.07;2.17;;;14.00;67.80;;;;;;4987263;28;20029;-54
2022/04/09 09:31:58;;;;;;;6.00;1.80;;;14.10;70.10;;;;;;4988593;28;20022;-64
2022/04/09 09:34:24;;;;;;;5.03;1.58;;;14.20;71.90;;;;;;4988813;28;20038;-55
2022/04/09 09:36:51;;;;;;;6.32;1.70;;;14.30;69.70;;;;;;4986721;28;20023;-64
2022/04/09 09:39:21;;;;;;;6.47;1.70;;;14.30;67.70;;;;;;4985650;28;20085;-62
2022/04/09 09:41:50;;;;;;;4.35;1.27;;;14.40;66.90;;;;;;4986820;28;20123;-62
2022/04/09 09:44:18;;;;;;;6.68;1.85;;;14.40;66.00;;;;;;4996127;28;20045;-56
2022/04/09 09:46:49;;;;;;;16.27;1.90;;;14.40;65.20;;;;;;4986161;28;20025;-53
2022/04/09 09:49:20;;;;;;;6.05;1.65;;;14.50;67.40;;;;;;4985425;28;20121;-55
2022/04/09 09:52:06;;;;;;;6.55;1.30;;;14.50;65.60;;;;;;4989073;28;20030;-62
2022/04/09 09:54:32;;;;;;;7.03;1.63;;;14.50;65.20;;;;;;4987227;28;20038;-63
2022/04/09 09:56:58;;;;;;;5.68;1.40;;;14.50;66.20;;;;;;4980557;28;20022;-62
2022/04/09 09:59:27;;;;;;;8.90;1.63;;;14.50;65.20;;;;;;4984494;28;20437;-60
2022/04/09 10:01:56;;;;;;;8.30;1.75;;;14.50;65.60;;;;;;4985629;28;20015;-69
2022/04/09 10:04:22;;;;;;;7.15;1.42;;;14.60;65.70;;;;;;4984293;28;20033;-59
2022/04/09 10:06:47;;;;;;;6.97;1.67;;;14.60;67.10;;;;;;4983819;28;20018;-62
2022/04/09 10:09:14;;;;;;;6.18;1.75;;;14.60;67.70;;;;;;4988050;28;20030;-64
2022/04/09 10:11:50;;;;;;;5.25;1.20;;;14.60;65.40;;;;;;4987802;28;20077;-56
2022/04/09 10:14:22;;;;;;;4.82;1.30;;;14.60;66.30;;;;;;4980342;28;20034;-64
2022/04/09 10:16:48;;;;;;;;;;;14.70;64.60;;;;;;4988067;28;20062;-65
2022/04/09 10:19:17;;;;;;;4.13;1.23;;;14.60;66.30;;;;;;4985248;28;19968;-63
2022/04/09 10:21:46;;;;;;;6.10;1.45;;;14.60;64.30;;;;;;4980947;28;20105;-66
2022/04/09 10:24:20;;;;;;;5.28;1.40;;;14.70;62.70;;;;;;4981149;28;20054;-65
2022/04/09 10:26:46;;;;;;;5.70;1.23;;;14.70;62.20;;;;;;4978487;28;20026;-63
2022/04/09 10:29:11;;;;;;;3.03;0.73;;;14.70;60.10;;;;;;4986778;28;20113;-60
2022/04/09 10:31:41;;;;;;;4.63;1.60;;;14.70;59.70;;;;;;4983683;28;20508;-66
2022/04/09 10:34:10;;;;;;;4.28;0.90;;;14.70;60.30;;;;;;4986419;28;20125;-67
2022/04/09 10:36:45;;;;;;;3.88;0.98;;;14.70;59.70;;;;;;4965298;28;20066;-63
2022/04/09 10:39:29;;;;;;;2.67;1.02;;;14.70;58.50;;;;;;4982661;28;20053;-66
2022/04/09 10:41:56;;;;;;;4.60;1.30;;;14.70;59.80;;;;;;4975029;28;20035;-64
2022/04/09 10:44:43;;;;;;;6.20;1.50;;;14.70;62.80;;;;;;4982928;28;20106;-65
2022/04/09 10:47:14;;;;;;;3.72;1.20;;;14.80;62.20;;;;;;4985017;28;20364;-58
2022/04/09 10:49:41;;;;;;;3.50;1.00;;;14.80;61.10;;;;;;4978757;28;20069;-64
2022/04/09 10:52:06;;;;;;;4.55;1.25;;;14.80;58.40;;;;;;4983681;28;20034;-64
2022/04/09 10:54:35;;;;;;;5.43;1.80;;;14.80;61.50;;;;;;4984342;28;20034;-62
2022/04/09 10:57:10;;;;;;;3.83;1.45;;;14.80;64.10;;;;;;4987832;28;20428;-66
2022/04/09 10:59:37;;;;;;;5.70;1.40;;;14.90;61.80;;;;;;4984846;28;20349;-64
2022/04/09 11:02:04;;;;;;;6.05;1.58;;;14.90;61.20;;;;;;4977323;28;20022;-63
2022/04/09 11:04:34;;;;;;;2.33;1.23;;;14.90;62.00;;;;;;4985021;28;20044;-64
2022/04/09 11:07:00;;;;;;;4.57;1.83;;;14.90;60.40;;;;;;4980527;28;20032;-66
2022/04/09 11:09:26;;;;;;;13.75;3.05;;;14.90;62.40;;;;;;4988485;28;20113;-62
2022/04/09 11:12:01;;;;;;;18.10;4.30;;;15.00;71.00;;;;;;4989351;28;20069;-66
2022/04/09 11:14:27;;;;;;;13.85;4.10;;;15.00;72.50;;;;;;4995419;28;20101;-65
2022/04/09 11:16:52;;;;;;;13.02;3.60;;;15.00;81.00;;;;;;4992339;28;20470;-64
2022/04/09 11:19:22;;;;;;;25.45;5.50;;;15.10;79.50;;;;;;4987098;28;20157;-59
2022/04/09 11:21:51;;;;;;;14.82;4.03;;;15.20;85.70;;;;;;4989264;28;20353;-63
2022/04/09 11:24:17;;;;;;;10.23;2.63;;;15.30;82.50;;;;;;4990183;28;20035;-63
2022/04/09 11:26:54;;;;;;;16.35;3.33;;;15.30;79.60;;;;;;4989561;28;20031;-66
2022/04/09 11:29:20;;;;;;;7.15;2.58;;;15.30;78.90;;;;;;4986900;28;20110;-65
2022/04/09 11:31:47;;;;;;;6.93;2.25;;;15.30;76.20;;;;;;4991634;28;20101;-65
2022/04/09 11:34:13;;;;;;;6.72;2.42;;;15.30;74.80;;;;;;4969331;28;20027;-63
2022/04/09 11:36:39;;;;;;;10.48;2.90;;;15.40;71.60;;;;;;4990641;28;20034;-65
2022/04/09 11:39:04;;;;;;;10.32;2.35;;;15.40;74.30;;;;;;4986797;28;20435;-64
2022/04/09 11:41:30;;;;;;;6.80;1.65;;;15.40;73.40;;;;;;4986665;28;20373;-58
2022/04/09 11:43:56;;;;;;;6.35;1.77;;;15.50;66.10;;;;;;4994597;28;20034;-59
2022/04/09 11:46:22;;;;;;;9.52;1.90;;;15.40;69.40;;;;;;4989901;28;20049;-62
2022/04/09 11:49:15;;;;;;;9.20;1.75;;;15.50;69.70;;;;;;4991129;28;20042;-63
2022/04/09 11:51:40;;;;;;;;;;;15.50;70.50;;;;;;4987086;28;20902;-62
2022/04/09 11:54:16;;;;;;;6.25;2.00;;;15.40;68.80;;;;;;4988299;28;19956;-58
2022/04/09 11:56:42;;;;;;;7.32;1.77;;;15.50;69.40;;;;;;4990278;28;20026;-64
2022/04/09 11:59:13;;;;;;;4.30;1.33;;;15.50;69.40;;;;;;4985879;28;20534;-59
2022/04/09 12:01:43;;;;;;;6.90;1.42;;;15.50;67.90;;;;;;4967340;28;20117;-60
2022/04/09 12:04:09;;;;;;;6.55;1.30;;;15.60;66.00;;;;;;4980056;28;20030;-56
2022/04/09 12:06:36;;;;;;;4.95;1.63;;;15.60;61.10;;;;;;4983221;28;20085;-54
2022/04/09 12:09:01;;;;;;;7.35;1.33;;;15.60;61.60;;;;;;4980144;28;20278;-59
2022/04/09 12:11:27;;;;;;;5.05;1.20;;;15.60;60.90;;;;;;4983310;28;20034;-61
2022/04/09 12:13:52;;;;;;;6.40;1.00;;;15.70;63.60;;;;;;4984344;28;20476;-62
2022/04/09 12:16:19;;;;;;;9.27;1.92;;;15.70;64.30;;;;;;4986009;28;20134;-59
2022/04/09 12:18:46;;;;;;;2.85;0.90;;;15.70;65.40;;;;;;4987613;28;20061;-52
2022/04/09 12:21:23;;;;;;;6.57;0.95;;;15.70;63.30;;;;;;4993295;28;20038;-62
2022/04/09 12:24:09;;;;;;;3.70;1.45;;;15.80;64.10;;;;;;4983054;28;20093;-63
2022/04/09 12:26:45;;;;;;;3.22;0.98;;;15.80;62.20;;;;;;4984217;28;20489;-63
2022/04/09 12:29:18;;;;;;;4.38;0.95;;;15.80;61.50;;;;;;4983268;28;20023;-58
2022/04/09 12:31:48;;;;;;;4.70;0.98;;;15.80;61.30;;;;;;4981793;28;20026;-62
2022/04/09 12:34:14;;;;;;;5.75;0.98;;;15.80;60.40;;;;;;4986392;28;20035;-61
2022/04/09 12:37:06;;;;;;;4.07;0.75;;;15.80;61.20;;;;;;4982168;28;20026;-58
2022/04/09 12:39:33;;;;;;;3.17;0.70;;;15.90;61.80;;;;;;4982917;28;20551;-56
2022/04/09 12:41:59;;;;;;;5.00;1.33;;;15.90;60.40;;;;;;4986107;28;20069;-62
2022/04/09 12:44:36;;;;;;;4.95;1.50;;;15.90;59.20;;;;;;4993625;28;20037;-61